createdAt,value
2018-07-26T00:00:00.920Z,20.95
2018-07-26T00:01:00.989Z,20.91
2018-07-26T00:02:00.958Z,20.87
2018-07-26T00:03:00.978Z,20.87
2018-07-26T00:04:00.990Z,20.87
2018-07-26T00:05:01.000Z,20.94
2018-07-26T00:06:01.067Z,20.94
2018-07-26T00:07:01.036Z,20.94
2018-07-26T00:08:01.059Z,20.98
2018-07-26T00:09:01.076Z,20.97
2018-07-26T00:10:01.088Z,20.92
2018-07-26T00:11:01.109Z,20.95
2018-07-26T00:12:01.173Z,20.94
2018-07-26T00:13:01.142Z,20.91
2018-07-26T00:14:01.164Z,20.85
2018-07-26T00:15:01.172Z,20.88
2018-07-26T00:16:01.184Z,20.87
2018-07-26T00:17:01.209Z,20.94
2018-07-26T00:18:01.227Z,20.91
2018-07-26T00:19:01.260Z,20.97
2018-07-26T00:20:01.259Z,20.88
2018-07-26T00:21:01.278Z,20.94
2018-07-26T00:22:01.294Z,20.79
2018-07-26T00:23:01.303Z,20.87
2018-07-26T00:24:01.324Z,20.70
2018-07-26T00:25:01.333Z,20.67
2018-07-26T00:26:01.355Z,20.66
2018-07-26T00:27:01.364Z,20.74
2018-07-26T00:28:01.389Z,20.67
2018-07-26T00:29:01.400Z,20.66
2018-07-26T00:30:01.470Z,20.76
2018-07-26T00:31:01.438Z,20.70
2018-07-26T00:32:01.452Z,20.76
2018-07-26T00:33:01.475Z,20.76
2018-07-26T00:34:01.485Z,20.66
2018-07-26T00:35:01.508Z,20.66
2018-07-26T00:36:01.521Z,20.55
2018-07-26T00:37:01.537Z,20.58
2018-07-26T00:38:01.555Z,20.64
2018-07-26T00:39:01.602Z,20.57
2018-07-26T00:40:01.606Z,20.64
2018-07-26T00:41:01.609Z,20.64
2018-07-26T00:42:01.669Z,20.69
2018-07-26T00:43:01.633Z,20.61
2018-07-26T00:44:01.724Z,20.67
2018-07-26T00:45:01.675Z,20.69
2018-07-26T00:46:01.700Z,20.64
2018-07-26T00:47:01.707Z,20.62
2018-07-26T00:48:01.770Z,20.74
2018-07-26T00:49:01.738Z,20.61
2018-07-26T00:50:01.756Z,20.66
2018-07-26T00:51:01.765Z,20.77
2018-07-26T00:52:01.787Z,20.59
2018-07-26T00:53:01.794Z,20.61
2018-07-26T00:54:01.874Z,20.62
2018-07-26T00:55:01.833Z,20.59
2018-07-26T00:56:01.850Z,20.59
2018-07-26T00:57:01.865Z,20.64
2018-07-26T00:58:01.880Z,20.66
2018-07-26T00:59:01.907Z,20.64
2018-07-26T01:00:01.926Z,20.62
2018-07-26T01:01:01.934Z,20.62
2018-07-26T01:02:01.959Z,20.55
2018-07-26T01:03:01.975Z,20.67
2018-07-26T01:04:01.988Z,20.64
2018-07-26T01:05:02.012Z,20.59
2018-07-26T01:06:02.023Z,20.76
2018-07-26T01:07:02.036Z,20.64
2018-07-26T01:08:02.048Z,20.66
2018-07-26T01:09:02.071Z,20.69
2018-07-26T01:10:02.085Z,20.62
2018-07-26T01:11:02.103Z,20.62
2018-07-26T01:12:02.173Z,20.69
2018-07-26T01:13:02.135Z,20.62
2018-07-26T01:14:02.155Z,20.58
2018-07-26T01:15:02.171Z,20.72
2018-07-26T01:16:02.182Z,20.64
2018-07-26T01:17:02.205Z,20.69
2018-07-26T01:18:02.270Z,20.67
2018-07-26T01:19:02.272Z,20.67
2018-07-26T01:20:02.257Z,20.62
2018-07-26T01:21:02.266Z,20.57
2018-07-26T01:22:02.280Z,20.66
2018-07-26T01:23:02.302Z,20.61
2018-07-26T01:24:02.318Z,20.64
2018-07-26T01:25:02.365Z,20.61
2018-07-26T01:26:02.344Z,20.62
2018-07-26T01:27:02.367Z,20.76
2018-07-26T01:28:02.384Z,20.69
2018-07-26T01:29:02.398Z,20.72
2018-07-26T01:30:02.467Z,20.64
2018-07-26T01:31:02.504Z,20.64
2018-07-26T01:32:02.447Z,20.62
2018-07-26T01:33:02.462Z,20.79
2018-07-26T01:34:02.482Z,20.67
2018-07-26T01:35:02.502Z,20.67
2018-07-26T01:36:02.517Z,20.66
2018-07-26T01:37:02.556Z,20.67
2018-07-26T01:38:02.548Z,20.72
2018-07-26T01:39:02.567Z,20.67
2018-07-26T01:40:02.581Z,20.61
2018-07-26T01:41:02.596Z,20.61
2018-07-26T01:42:02.664Z,20.64
2018-07-26T01:43:02.635Z,20.72
2018-07-26T01:44:02.651Z,20.61
2018-07-26T01:45:02.676Z,20.70
2018-07-26T01:46:02.683Z,20.67
2018-07-26T01:47:02.701Z,20.69
2018-07-26T01:48:02.714Z,20.64
2018-07-26T01:49:02.736Z,20.66
2018-07-26T01:50:02.744Z,20.64
2018-07-26T01:51:02.772Z,20.61
2018-07-26T01:52:02.787Z,20.70
2018-07-26T01:53:02.797Z,20.66
2018-07-26T01:54:02.817Z,20.67
2018-07-26T01:55:02.829Z,20.66
2018-07-26T01:56:02.847Z,20.69
2018-07-26T01:57:02.872Z,20.66
2018-07-26T01:58:02.881Z,20.64
2018-07-26T01:59:02.898Z,20.73
2018-07-26T02:00:02.968Z,20.74
2018-07-26T02:01:02.932Z,20.77
2018-07-26T02:02:02.940Z,20.67
2018-07-26T02:03:02.957Z,20.76
2018-07-26T02:04:02.984Z,20.67
2018-07-26T02:05:02.995Z,20.70
2018-07-26T02:06:03.009Z,20.76
2018-07-26T02:07:03.052Z,20.74
2018-07-26T02:08:03.045Z,20.67
2018-07-26T02:09:03.068Z,20.64
2018-07-26T02:10:03.069Z,20.69
2018-07-26T02:11:03.090Z,20.67
2018-07-26T02:12:03.109Z,20.76
2018-07-26T02:13:03.129Z,20.59
2018-07-26T02:14:03.153Z,20.62
2018-07-26T02:15:03.156Z,20.69
2018-07-26T02:16:03.178Z,20.66
2018-07-26T02:17:03.185Z,20.66
2018-07-26T02:18:03.208Z,20.67
2018-07-26T02:19:03.222Z,20.57
2018-07-26T02:20:03.236Z,20.66
2018-07-26T02:21:03.258Z,20.62
2018-07-26T02:22:03.278Z,20.64
2018-07-26T02:23:03.291Z,20.61
2018-07-26T02:24:03.306Z,20.72
2018-07-26T02:25:03.320Z,20.66
2018-07-26T02:26:03.340Z,20.74
2018-07-26T02:27:03.361Z,20.76
2018-07-26T02:28:03.374Z,20.82
2018-07-26T02:29:03.393Z,20.80
2018-07-26T02:30:03.413Z,20.66
2018-07-26T02:31:03.555Z,20.69
2018-07-26T02:32:03.444Z,20.76
2018-07-26T02:33:03.457Z,20.76
2018-07-26T02:34:03.472Z,20.72
2018-07-26T02:35:03.501Z,20.70
2018-07-26T02:36:03.512Z,20.72
2018-07-26T02:37:03.523Z,20.66
2018-07-26T02:38:03.543Z,20.69
2018-07-26T02:39:03.571Z,20.73
2018-07-26T02:40:03.566Z,20.70
2018-07-26T02:41:03.596Z,20.66
2018-07-26T02:42:03.671Z,20.64
2018-07-26T02:43:03.619Z,20.67
2018-07-26T02:44:03.643Z,20.66
2018-07-26T02:45:03.668Z,20.76
2018-07-26T02:46:03.671Z,20.70
2018-07-26T02:47:03.686Z,20.77
2018-07-26T02:48:03.705Z,20.73
2018-07-26T02:49:03.721Z,20.76
2018-07-26T02:50:03.794Z,20.64
2018-07-26T02:51:03.755Z,20.72
2018-07-26T02:52:03.768Z,20.66
2018-07-26T02:53:03.789Z,20.72
2018-07-26T02:54:03.803Z,20.79
2018-07-26T02:55:03.830Z,20.64
2018-07-26T02:56:03.894Z,20.64
2018-07-26T02:57:03.852Z,20.61
2018-07-26T02:58:03.873Z,20.64
2018-07-26T02:59:03.889Z,20.66
2018-07-26T03:00:03.902Z,20.64
2018-07-26T03:01:03.929Z,20.64
2018-07-26T03:02:03.935Z,20.67
2018-07-26T03:03:03.950Z,20.62
2018-07-26T03:04:03.972Z,20.72
2018-07-26T03:05:03.990Z,20.67
2018-07-26T03:06:04.056Z,20.64
2018-07-26T03:07:04.064Z,20.66
2018-07-26T03:08:04.047Z,20.61
2018-07-26T03:09:04.054Z,20.58
2018-07-26T03:10:04.077Z,20.67
2018-07-26T03:11:04.093Z,20.64
2018-07-26T03:12:04.156Z,20.74
2018-07-26T03:13:04.120Z,20.66
2018-07-26T03:14:04.137Z,20.62
2018-07-26T03:15:04.178Z,20.59
2018-07-26T03:16:04.162Z,20.72
2018-07-26T03:17:04.184Z,20.62
2018-07-26T03:18:04.198Z,20.64
2018-07-26T03:19:04.214Z,20.72
2018-07-26T03:20:04.234Z,20.67
2018-07-26T03:21:04.381Z,20.70
2018-07-26T03:22:04.272Z,20.62
2018-07-26T03:23:04.292Z,20.58
2018-07-26T03:24:04.350Z,20.66
2018-07-26T03:25:04.316Z,20.58
2018-07-26T03:26:04.337Z,20.61
2018-07-26T03:27:04.422Z,20.61
2018-07-26T03:28:04.358Z,20.64
2018-07-26T03:29:04.385Z,20.59
2018-07-26T03:30:04.453Z,20.62
2018-07-26T03:31:04.413Z,20.59
2018-07-26T03:32:04.426Z,20.55
2018-07-26T03:33:04.444Z,20.51
2018-07-26T03:34:04.458Z,20.52
2018-07-26T03:35:04.479Z,20.54
2018-07-26T03:36:04.494Z,20.57
2018-07-26T03:37:04.516Z,20.54
2018-07-26T03:38:04.532Z,20.54
2018-07-26T03:39:04.554Z,20.62
2018-07-26T03:40:04.566Z,20.66
2018-07-26T03:41:04.589Z,20.57
2018-07-26T03:42:04.600Z,20.58
2018-07-26T03:43:04.614Z,20.58
2018-07-26T03:44:04.622Z,20.58
2018-07-26T03:45:04.649Z,20.59
2018-07-26T03:46:04.664Z,20.58
2018-07-26T03:47:04.683Z,20.58
2018-07-26T03:48:04.690Z,20.54
2018-07-26T03:49:04.715Z,20.62
2018-07-26T03:50:04.732Z,20.62
2018-07-26T03:51:04.785Z,20.62
2018-07-26T03:52:04.757Z,20.58
2018-07-26T03:53:04.773Z,20.55
2018-07-26T03:54:04.796Z,20.55
2018-07-26T03:55:04.803Z,20.50
2018-07-26T03:56:04.823Z,20.55
2018-07-26T03:57:04.843Z,20.51
2018-07-26T03:58:04.869Z,20.42
2018-07-26T03:59:04.876Z,20.41
2018-07-26T04:00:04.890Z,20.48
2018-07-26T04:01:04.902Z,20.43
2018-07-26T04:02:04.923Z,20.47
2018-07-26T04:03:04.940Z,20.41
2018-07-26T04:04:04.957Z,20.54
2018-07-26T04:05:04.977Z,20.51
2018-07-26T04:06:05.041Z,20.52
2018-07-26T04:07:05.008Z,20.48
2018-07-26T04:08:05.026Z,20.39
2018-07-26T04:09:05.046Z,20.42
2018-07-26T04:10:05.136Z,20.43
2018-07-26T04:11:05.070Z,20.42
2018-07-26T04:12:05.082Z,20.43
2018-07-26T04:13:05.106Z,20.36
2018-07-26T04:14:05.211Z,20.35
2018-07-26T04:15:05.142Z,20.39
2018-07-26T04:16:05.157Z,20.43
2018-07-26T04:17:05.175Z,20.36
2018-07-26T04:18:05.195Z,20.38
2018-07-26T04:19:05.296Z,20.39
2018-07-26T04:20:05.257Z,20.38
2018-07-26T04:21:05.240Z,20.47
2018-07-26T04:22:05.254Z,20.47
2018-07-26T04:23:05.272Z,20.48
2018-07-26T04:24:05.285Z,20.43
2018-07-26T04:25:05.304Z,20.39
2018-07-26T04:26:05.353Z,20.43
2018-07-26T04:27:05.415Z,20.41
2018-07-26T04:28:05.352Z,20.36
2018-07-26T04:29:05.372Z,20.42
2018-07-26T04:30:05.393Z,20.33
2018-07-26T04:31:05.492Z,20.36
2018-07-26T04:32:05.619Z,20.35
2018-07-26T04:33:05.437Z,20.48
2018-07-26T04:34:05.454Z,20.41
2018-07-26T04:35:05.467Z,20.41
2018-07-26T04:36:05.485Z,20.41
2018-07-26T04:37:05.498Z,20.41
2018-07-26T04:38:05.511Z,20.39
2018-07-26T04:39:05.536Z,20.47
2018-07-26T04:40:05.543Z,20.42
2018-07-26T04:41:05.561Z,20.41
2018-07-26T04:42:05.589Z,20.42
2018-07-26T04:43:05.618Z,20.42
2018-07-26T04:44:05.616Z,20.36
2018-07-26T04:45:05.637Z,20.39
2018-07-26T04:46:05.648Z,20.43
2018-07-26T04:47:05.668Z,20.42
2018-07-26T04:48:05.673Z,20.39
2018-07-26T04:49:05.697Z,20.31
2018-07-26T04:50:05.713Z,20.36
2018-07-26T04:51:05.728Z,20.38
2018-07-26T04:52:05.751Z,20.33
2018-07-26T04:53:05.790Z,20.24
2018-07-26T04:54:05.783Z,20.24
2018-07-26T04:55:05.793Z,20.35
2018-07-26T04:56:05.805Z,20.32
2018-07-26T04:57:05.831Z,20.35
2018-07-26T04:58:05.845Z,20.32
2018-07-26T04:59:05.903Z,20.31
2018-07-26T05:00:05.884Z,20.38
2018-07-26T05:01:05.890Z,20.31
2018-07-26T05:02:05.908Z,20.41
2018-07-26T05:03:05.929Z,20.41
2018-07-26T05:04:05.937Z,20.47
2018-07-26T05:05:05.988Z,20.36
2018-07-26T05:06:06.092Z,20.38
2018-07-26T05:07:05.985Z,20.43
2018-07-26T05:08:06.014Z,20.41
2018-07-26T05:09:06.025Z,20.41
2018-07-26T05:10:06.035Z,20.41
2018-07-26T05:11:06.054Z,20.43
2018-07-26T05:12:06.066Z,20.38
2018-07-26T05:13:06.089Z,20.35
2018-07-26T05:14:06.109Z,20.38
2018-07-26T05:15:06.118Z,20.33
2018-07-26T05:16:06.186Z,20.43
2018-07-26T05:17:06.157Z,20.36
2018-07-26T05:18:06.214Z,20.41
2018-07-26T05:19:06.325Z,20.36
2018-07-26T05:20:06.193Z,20.42
2018-07-26T05:21:06.214Z,20.43
2018-07-26T05:22:06.233Z,20.47
2018-07-26T05:23:06.250Z,20.43
2018-07-26T05:24:06.317Z,20.54
2018-07-26T05:25:06.283Z,20.57
2018-07-26T05:26:06.298Z,20.54
2018-07-26T05:27:06.316Z,20.57
2018-07-26T05:28:06.336Z,20.50
2018-07-26T05:29:06.356Z,20.48
2018-07-26T05:30:06.372Z,20.59
2018-07-26T05:31:06.378Z,20.47
2018-07-26T05:32:06.402Z,20.39
2018-07-26T05:33:06.417Z,20.50
2018-07-26T05:34:06.429Z,20.43
2018-07-26T05:35:06.445Z,20.43
2018-07-26T05:36:06.467Z,20.39
2018-07-26T05:37:06.477Z,20.42
2018-07-26T05:38:06.497Z,20.39
2018-07-26T05:39:06.510Z,20.48
2018-07-26T05:40:06.519Z,20.38
2018-07-26T05:41:06.555Z,20.35
2018-07-26T05:42:06.642Z,20.35
2018-07-26T05:43:06.597Z,20.41
2018-07-26T05:44:06.609Z,20.39
2018-07-26T05:45:06.628Z,20.43
2018-07-26T05:46:06.626Z,20.41
2018-07-26T05:47:06.641Z,20.43
2018-07-26T05:48:06.769Z,20.43
2018-07-26T05:49:06.674Z,20.41
2018-07-26T05:50:06.695Z,20.38
2018-07-26T05:51:06.712Z,20.24
2018-07-26T05:52:06.743Z,20.31
2018-07-26T05:53:06.744Z,20.36
2018-07-26T05:54:06.835Z,20.35
2018-07-26T05:55:06.779Z,20.33
2018-07-26T05:56:06.788Z,20.38
2018-07-26T05:57:06.804Z,20.33
2018-07-26T05:58:06.828Z,20.35
2018-07-26T05:59:06.840Z,20.43
2018-07-26T06:00:06.924Z,20.47
2018-07-26T06:01:06.870Z,20.41
2018-07-26T06:02:06.892Z,20.41
2018-07-26T06:03:06.912Z,20.33
2018-07-26T06:04:06.918Z,20.35
2018-07-26T06:05:06.941Z,20.21
2018-07-26T06:06:07.041Z,20.35
2018-07-26T06:07:06.970Z,20.36
2018-07-26T06:08:06.991Z,20.47
2018-07-26T06:09:07.007Z,20.39
2018-07-26T06:10:07.019Z,20.36
2018-07-26T06:11:07.039Z,20.38
2018-07-26T06:12:07.140Z,20.29
2018-07-26T06:13:07.071Z,20.31
2018-07-26T06:14:07.085Z,20.33
2018-07-26T06:15:07.097Z,20.29
2018-07-26T06:16:07.122Z,20.28
2018-07-26T06:17:07.143Z,20.41
2018-07-26T06:18:07.230Z,20.24
2018-07-26T06:19:07.166Z,20.36
2018-07-26T06:20:07.188Z,20.31
2018-07-26T06:21:07.194Z,20.38
2018-07-26T06:22:07.217Z,20.38
2018-07-26T06:23:07.231Z,20.32
2018-07-26T06:24:07.317Z,20.39
2018-07-26T06:25:07.257Z,20.35
2018-07-26T06:26:07.273Z,20.35
2018-07-26T06:27:07.289Z,20.36
2018-07-26T06:28:07.354Z,20.42
2018-07-26T06:29:07.328Z,20.43
2018-07-26T06:30:07.394Z,20.52
2018-07-26T06:31:07.361Z,20.50
2018-07-26T06:32:07.374Z,20.38
2018-07-26T06:33:07.436Z,20.33
2018-07-26T06:34:07.405Z,20.32
2018-07-26T06:35:07.421Z,20.39
2018-07-26T06:36:07.496Z,20.48
2018-07-26T06:37:07.463Z,20.42
2018-07-26T06:38:07.475Z,20.55
2018-07-26T06:39:07.497Z,20.57
2018-07-26T06:40:07.511Z,20.52
2018-07-26T06:41:07.525Z,20.58
2018-07-26T06:42:07.541Z,20.57
2018-07-26T06:43:07.553Z,20.55
2018-07-26T06:44:07.569Z,20.51
2018-07-26T06:45:07.587Z,20.57
2018-07-26T06:46:07.605Z,20.57
2018-07-26T06:47:07.680Z,20.58
2018-07-26T06:48:07.698Z,20.57
2018-07-26T06:49:07.657Z,20.58
2018-07-26T06:50:07.706Z,20.54
2018-07-26T06:51:07.693Z,20.62
2018-07-26T06:52:07.707Z,20.62
2018-07-26T06:53:07.793Z,20.61
2018-07-26T06:54:07.785Z,20.62
2018-07-26T06:55:07.748Z,20.61
2018-07-26T06:56:07.775Z,20.61
2018-07-26T06:57:07.790Z,20.55
2018-07-26T06:58:07.806Z,20.61
2018-07-26T06:59:07.823Z,20.67
2018-07-26T07:00:07.889Z,20.67
2018-07-26T07:01:07.951Z,20.74
2018-07-26T07:02:07.861Z,20.67
2018-07-26T07:03:07.877Z,20.82
2018-07-26T07:04:07.902Z,20.73
2018-07-26T07:05:07.919Z,20.69
2018-07-26T07:06:07.977Z,20.87
2018-07-26T07:07:08.027Z,20.89
2018-07-26T07:08:07.964Z,20.88
2018-07-26T07:09:07.979Z,20.85
2018-07-26T07:10:08.051Z,20.92
2018-07-26T07:11:08.015Z,20.98
2018-07-26T07:12:08.035Z,21.03
2018-07-26T07:13:08.048Z,21.01
2018-07-26T07:14:08.066Z,21.12
2018-07-26T07:15:08.083Z,21.13
2018-07-26T07:16:08.099Z,21.17
2018-07-26T07:17:08.119Z,21.12
2018-07-26T07:18:08.130Z,21.12
2018-07-26T07:19:08.147Z,21.13
2018-07-26T07:20:08.172Z,21.14
2018-07-26T07:21:08.179Z,21.13
2018-07-26T07:22:08.195Z,21.19
2018-07-26T07:23:08.220Z,21.24
2018-07-26T07:24:08.232Z,21.17
2018-07-26T07:25:08.247Z,21.17
2018-07-26T07:26:08.347Z,21.19
2018-07-26T07:27:08.281Z,21.24
2018-07-26T07:28:08.303Z,21.27
2018-07-26T07:29:08.319Z,21.29
2018-07-26T07:30:08.339Z,21.17
2018-07-26T07:31:08.351Z,21.21
2018-07-26T07:32:08.395Z,21.17
2018-07-26T07:33:08.393Z,21.24
2018-07-26T07:34:08.392Z,21.29
2018-07-26T07:35:08.415Z,21.47
2018-07-26T07:36:08.433Z,21.52
2018-07-26T07:37:08.452Z,21.52
2018-07-26T07:38:08.556Z,21.59
2018-07-26T07:39:08.481Z,21.69
2018-07-26T07:40:08.499Z,21.69
2018-07-26T07:41:08.512Z,21.54
2018-07-26T07:42:08.535Z,21.47
2018-07-26T07:43:08.552Z,21.37
2018-07-26T07:44:08.583Z,21.37
2018-07-26T07:45:08.581Z,21.38
2018-07-26T07:46:08.603Z,21.56
2018-07-26T07:47:08.649Z,21.58
2018-07-26T07:48:08.683Z,21.46
2018-07-26T07:49:08.663Z,21.50
2018-07-26T07:50:08.665Z,21.58
2018-07-26T07:51:08.687Z,21.72
2018-07-26T07:52:08.703Z,21.61
2018-07-26T07:53:08.718Z,21.67
2018-07-26T07:54:08.783Z,21.79
2018-07-26T07:55:08.744Z,21.75
2018-07-26T07:56:08.768Z,21.75
2018-07-26T07:57:08.788Z,21.86
2018-07-26T07:58:08.805Z,22.02
2018-07-26T07:59:08.819Z,21.84
2018-07-26T08:00:08.889Z,21.96
2018-07-26T08:01:08.860Z,22.05
2018-07-26T08:02:08.878Z,22.17
2018-07-26T08:03:08.884Z,22.20
2018-07-26T08:04:08.900Z,22.21
2018-07-26T08:05:08.918Z,22.24
2018-07-26T08:06:08.988Z,22.18
2018-07-26T08:07:08.959Z,22.17
2018-07-26T08:08:08.979Z,22.17
2018-07-26T08:09:08.988Z,22.18
2018-07-26T08:10:09.004Z,22.06
2018-07-26T08:11:09.060Z,22.24
2018-07-26T08:12:09.040Z,22.20
2018-07-26T08:13:09.063Z,22.24
2018-07-26T08:14:09.153Z,22.46
2018-07-26T08:15:09.098Z,22.52
2018-07-26T08:16:09.109Z,22.49
2018-07-26T08:17:09.137Z,22.43
2018-07-26T08:18:09.150Z,22.49
2018-07-26T08:19:09.161Z,22.54
2018-07-26T08:20:09.245Z,22.52
2018-07-26T08:21:09.196Z,22.52
2018-07-26T08:22:09.216Z,22.58
2018-07-26T08:23:09.234Z,22.58
2018-07-26T08:24:09.297Z,22.65
2018-07-26T08:25:09.274Z,22.65
2018-07-26T08:26:09.278Z,22.65
2018-07-26T08:27:09.297Z,22.65
2018-07-26T08:28:09.316Z,22.79
2018-07-26T08:29:09.340Z,22.68
2018-07-26T08:30:09.356Z,22.67
2018-07-26T08:31:09.368Z,22.52
2018-07-26T08:32:09.385Z,22.52
2018-07-26T08:33:09.408Z,22.49
2018-07-26T08:34:09.422Z,22.47
2018-07-26T08:35:09.557Z,22.61
2018-07-26T08:36:09.461Z,22.47
2018-07-26T08:37:09.477Z,22.49
2018-07-26T08:38:09.494Z,22.90
2018-07-26T08:39:09.509Z,23.04
2018-07-26T08:40:09.528Z,23.42
2018-07-26T08:41:09.555Z,23.46
2018-07-26T08:42:09.563Z,23.76
2018-07-26T08:43:09.605Z,23.94
2018-07-26T08:44:09.605Z,24.02
2018-07-26T08:45:09.614Z,23.80
2018-07-26T08:46:09.646Z,23.88
2018-07-26T08:47:09.655Z,23.87
2018-07-26T08:48:09.742Z,23.39
2018-07-26T08:49:09.695Z,23.32
2018-07-26T08:50:09.707Z,23.43
2018-07-26T08:51:09.727Z,23.73
2018-07-26T08:52:09.766Z,23.73
2018-07-26T08:53:09.766Z,23.88
2018-07-26T08:54:09.818Z,23.78
2018-07-26T08:55:09.792Z,24.15
2018-07-26T08:56:09.815Z,24.57
2018-07-26T08:57:09.831Z,25.33
2018-07-26T08:58:09.852Z,25.51
2018-07-26T08:59:09.864Z,25.50
2018-07-26T09:00:09.890Z,25.35
2018-07-26T09:01:09.948Z,25.60
2018-07-26T09:02:09.931Z,25.36
2018-07-26T09:03:09.941Z,26.02
2018-07-26T09:04:09.966Z,25.98
2018-07-26T09:05:09.976Z,26.13
2018-07-26T09:06:09.996Z,26.15
2018-07-26T09:07:10.016Z,26.39
2018-07-26T09:08:10.045Z,26.51
2018-07-26T09:09:10.051Z,26.99
2018-07-26T09:10:10.076Z,26.65
2018-07-26T09:11:10.103Z,26.62
2018-07-26T09:12:10.169Z,26.45
2018-07-26T09:13:10.138Z,26.75
2018-07-26T09:14:10.220Z,27.22
2018-07-26T09:15:10.172Z,27.22
2018-07-26T09:16:10.198Z,27.25
2018-07-26T09:17:10.233Z,27.28
2018-07-26T09:18:10.234Z,27.10
2018-07-26T09:19:10.251Z,27.25
2018-07-26T09:20:10.277Z,27.67
2018-07-26T09:21:10.296Z,27.72
2018-07-26T09:22:10.316Z,27.82
2018-07-26T09:23:10.336Z,28.03
2018-07-26T09:24:10.400Z,27.84
2018-07-26T09:25:10.375Z,27.62
2018-07-26T09:26:10.489Z,27.49
2018-07-26T09:27:10.420Z,27.27
2018-07-26T09:28:10.438Z,27.55
2018-07-26T09:29:10.464Z,27.70
2018-07-26T09:30:10.528Z,27.93
2018-07-26T09:31:10.502Z,27.69
2018-07-26T09:32:10.552Z,27.47
2018-07-26T09:33:10.549Z,27.88
2018-07-26T09:34:10.564Z,27.25
2018-07-26T09:35:10.579Z,27.19
2018-07-26T09:36:10.599Z,27.37
2018-07-26T09:37:10.631Z,27.63
2018-07-26T09:38:10.645Z,27.51
2018-07-26T09:39:10.665Z,27.51
2018-07-26T09:40:10.693Z,27.14
2018-07-26T09:41:10.717Z,27.50
2018-07-26T09:42:10.878Z,27.40
2018-07-26T09:43:10.748Z,27.66
2018-07-26T09:44:10.764Z,27.44
2018-07-26T09:45:10.790Z,27.88
2018-07-26T09:46:10.821Z,28.18
2018-07-26T09:47:10.881Z,28.17
2018-07-26T09:48:10.851Z,28.07
2018-07-26T09:49:10.882Z,28.21
2018-07-26T09:50:10.902Z,28.03
2018-07-26T09:51:10.915Z,28.33
2018-07-26T09:52:10.932Z,28.24
2018-07-26T09:53:10.966Z,28.06
2018-07-26T09:54:10.994Z,28.17
2018-07-26T09:55:11.011Z,28.34
2018-07-26T09:56:11.058Z,28.66
2018-07-26T09:57:11.041Z,28.85
2018-07-26T09:58:11.068Z,29.16
2018-07-26T09:59:11.133Z,28.83
2018-07-26T10:00:11.119Z,28.76
2018-07-26T10:01:11.128Z,28.89
2018-07-26T10:02:11.142Z,28.71
2018-07-26T10:03:11.172Z,27.70
2018-07-26T10:04:11.194Z,27.82
2018-07-26T10:05:11.268Z,27.63
2018-07-26T10:06:11.238Z,28.03
2018-07-26T10:07:11.256Z,28.27
2018-07-26T10:08:11.285Z,28.58
2018-07-26T10:09:11.300Z,29.05
2018-07-26T10:10:11.318Z,29.08
2018-07-26T10:11:11.336Z,28.73
2018-07-26T10:12:11.364Z,28.37
2018-07-26T10:13:11.388Z,27.78
2018-07-26T10:14:11.411Z,27.75
2018-07-26T10:15:11.534Z,28.41
2018-07-26T10:16:11.446Z,28.51
2018-07-26T10:17:11.466Z,28.15
2018-07-26T10:18:11.492Z,28.36
2018-07-26T10:19:11.519Z,28.22
2018-07-26T10:20:11.578Z,28.58
2018-07-26T10:21:11.589Z,28.66
2018-07-26T10:22:11.576Z,28.51
2018-07-26T10:23:11.604Z,29.11
2018-07-26T10:24:11.626Z,29.37
2018-07-26T10:25:11.642Z,28.81
2018-07-26T10:26:11.662Z,29.02
2018-07-26T10:27:11.730Z,28.89
2018-07-26T10:28:11.710Z,29.37
2018-07-26T10:29:11.738Z,29.33
2018-07-26T10:30:11.750Z,28.89
2018-07-26T10:31:11.774Z,29.16
2018-07-26T10:32:11.795Z,29.08
2018-07-26T10:33:11.819Z,29.24
2018-07-26T10:34:11.837Z,28.90
2018-07-26T10:35:11.855Z,29.05
2018-07-26T10:36:11.881Z,29.27
2018-07-26T10:37:11.910Z,29.52
2018-07-26T10:38:11.926Z,29.97
2018-07-26T10:39:12.028Z,30.19
2018-07-26T10:40:11.964Z,29.82
2018-07-26T10:41:12.041Z,29.33
2018-07-26T10:42:12.013Z,28.37
2018-07-26T10:43:12.040Z,28.37
2018-07-26T10:44:12.054Z,28.88
2018-07-26T10:45:12.110Z,29.34
2018-07-26T10:46:12.134Z,29.43
2018-07-26T10:47:12.175Z,29.67
2018-07-26T10:48:12.146Z,29.43
2018-07-26T10:49:12.164Z,30.02
2018-07-26T10:50:12.189Z,29.89
2018-07-26T10:51:12.213Z,28.62
2018-07-26T10:52:12.227Z,29.12
2018-07-26T10:53:12.261Z,29.37
2018-07-26T10:54:12.267Z,29.52
2018-07-26T10:55:12.292Z,29.92
2018-07-26T10:56:12.318Z,29.51
2018-07-26T10:57:12.344Z,29.70
2018-07-26T10:58:12.360Z,29.67
2018-07-26T10:59:12.379Z,29.14
2018-07-26T11:00:12.457Z,29.46
2018-07-26T11:01:12.425Z,29.46
2018-07-26T11:02:12.443Z,29.80
2018-07-26T11:03:12.473Z,30.32
2018-07-26T11:04:12.495Z,30.47
2018-07-26T11:05:12.568Z,30.22
2018-07-26T11:06:12.537Z,30.51
2018-07-26T11:07:12.565Z,30.88
2018-07-26T11:08:12.590Z,31.02
2018-07-26T11:09:12.603Z,31.32
2018-07-26T11:10:12.628Z,31.29
2018-07-26T11:11:12.655Z,30.72
2018-07-26T11:12:12.678Z,30.43
2018-07-26T11:13:12.692Z,30.23
2018-07-26T11:14:12.723Z,29.39
2018-07-26T11:15:12.818Z,29.42
2018-07-26T11:16:12.788Z,29.31
2018-07-26T11:17:12.785Z,29.12
2018-07-26T11:18:12.816Z,28.98
2018-07-26T11:19:12.840Z,28.88
2018-07-26T11:20:12.852Z,28.93
2018-07-26T11:21:12.879Z,29.19
2018-07-26T11:22:12.945Z,29.83
2018-07-26T11:23:12.924Z,30.04
2018-07-26T11:24:12.952Z,30.43
2018-07-26T11:25:12.967Z,31.07
2018-07-26T11:26:13.001Z,31.09
2018-07-26T11:27:13.018Z,30.69
2018-07-26T11:28:13.107Z,30.37
2018-07-26T11:29:13.062Z,30.35
2018-07-26T11:30:13.080Z,30.23
2018-07-26T11:31:13.111Z,30.26
2018-07-26T11:32:13.122Z,30.31
2018-07-26T11:33:13.148Z,30.24
2018-07-26T11:34:13.167Z,30.37
2018-07-26T11:35:13.186Z,30.54
2018-07-26T11:36:13.212Z,30.54
2018-07-26T11:37:13.250Z,30.45
2018-07-26T11:38:13.255Z,29.98
2018-07-26T11:39:13.282Z,29.58
2018-07-26T11:40:13.386Z,29.14
2018-07-26T11:41:13.325Z,29.18
2018-07-26T11:42:13.355Z,28.98
2018-07-26T11:43:13.371Z,29.18
2018-07-26T11:44:13.400Z,29.28
2018-07-26T11:45:13.420Z,30.10
2018-07-26T11:46:13.493Z,30.53
2018-07-26T11:47:13.539Z,30.69
2018-07-26T11:48:13.489Z,31.09
2018-07-26T11:49:13.514Z,30.31
2018-07-26T11:50:13.574Z,30.04
2018-07-26T11:51:13.560Z,30.05
2018-07-26T11:52:13.575Z,30.38
2018-07-26T11:53:13.641Z,30.45
2018-07-26T11:54:13.619Z,30.64
2018-07-26T11:55:13.643Z,30.60
2018-07-26T11:56:13.663Z,30.79
2018-07-26T11:57:13.698Z,31.10
2018-07-26T11:58:13.714Z,30.91
2018-07-26T11:59:13.786Z,31.13
2018-07-26T12:00:13.762Z,31.01
2018-07-26T12:01:13.783Z,31.13
2018-07-26T12:02:13.798Z,30.89
2018-07-26T12:03:13.823Z,31.06
2018-07-26T12:04:13.851Z,30.75
2018-07-26T12:05:13.881Z,30.49
2018-07-26T12:06:13.903Z,29.98
2018-07-26T12:07:13.915Z,30.26
2018-07-26T12:08:13.959Z,30.67
2018-07-26T12:09:13.961Z,31.21
2018-07-26T12:10:14.034Z,30.72
2018-07-26T12:11:14.010Z,30.99
2018-07-26T12:12:14.026Z,30.94
2018-07-26T12:13:14.047Z,30.46
2018-07-26T12:14:14.119Z,29.65
2018-07-26T12:15:14.101Z,30.26
2018-07-26T12:16:14.115Z,30.76
2018-07-26T12:17:14.149Z,30.73
2018-07-26T12:18:14.192Z,30.82
2018-07-26T12:19:14.194Z,30.51
2018-07-26T12:20:14.211Z,30.23
2018-07-26T12:21:14.235Z,30.46
2018-07-26T12:22:14.262Z,30.89
2018-07-26T12:23:14.288Z,31.48
2018-07-26T12:24:14.327Z,31.39
2018-07-26T12:25:14.344Z,30.01
2018-07-26T12:26:14.353Z,30.42
2018-07-26T12:27:14.382Z,30.77
2018-07-26T12:28:14.450Z,30.73
2018-07-26T12:29:14.439Z,30.98
2018-07-26T12:30:14.443Z,31.12
2018-07-26T12:31:14.456Z,30.84
2018-07-26T12:32:14.482Z,31.19
2018-07-26T12:33:14.510Z,30.70
2018-07-26T12:34:14.541Z,31.09
2018-07-26T12:35:14.550Z,31.04
2018-07-26T12:36:14.584Z,30.89
2018-07-26T12:37:14.606Z,30.89
2018-07-26T12:38:14.632Z,30.62
2018-07-26T12:39:14.650Z,30.61
2018-07-26T12:40:14.670Z,30.84
2018-07-26T12:41:14.714Z,31.39
2018-07-26T12:42:14.719Z,31.31
2018-07-26T12:43:14.749Z,31.16
2018-07-26T12:44:14.764Z,31.12
2018-07-26T12:45:14.788Z,31.25
2018-07-26T12:46:14.811Z,30.79
2018-07-26T12:47:14.837Z,30.76
2018-07-26T12:48:14.861Z,31.06
2018-07-26T12:49:14.952Z,31.06
2018-07-26T12:50:14.895Z,31.10
2018-07-26T12:51:14.927Z,30.91
2018-07-26T12:52:14.947Z,30.54